Time;durP1;ratioP1;P1;durP2;ratioP2;P2;SDS_P1;SDS_P2;PMS_P1;PMS_P2;Temp;Humidity;BMP_temperature;BMP_pressure;BME280_temperature;BME280_humidity;BME280_pressure;Samples;Min_cycle;Max_cycle;Signal;HPM_P1;HPM_P2
2023/04/07 00:01:56;;;;;;;7.85;4.00;;;11.20;43.20;;;6.63;65.07;95527.91;4992295;28;20542;-51
2023/04/07 00:04:22;;;;;;;5.07;4.07;;;11.20;43.30;;;6.61;65.97;95527.31;4995341;28;20030;-51
2023/04/07 00:06:48;;;;;;;5.25;3.63;;;11.20;43.50;;;6.60;66.32;95523.09;4995042;28;20018;-50
2023/04/07 00:09:14;;;;;;;6.57;3.53;;;11.20;43.60;;;6.53;67.57;95514.50;4995036;28;20373;-50
2023/04/07 00:11:40;;;;;;;7.53;4.40;;;11.20;43.70;;;6.53;67.18;95519.81;4995188;28;20038;-49
2023/04/07 00:14:06;;;;;;;7.90;4.28;;;11.20;43.90;;;6.49;63.71;95517.63;4994012;28;20018;-49
2023/04/07 00:16:32;;;;;;;8.68;4.10;;;11.20;43.90;;;6.51;64.04;95514.72;4994760;28;20033;-51
2023/04/07 00:18:58;;;;;;;5.95;4.20;;;11.10;43.80;;;6.49;63.20;95507.06;4994087;28;20599;-49
2023/04/07 00:21:25;;;;;;;6.72;3.30;;;11.20;43.80;;;6.52;63.47;95503.13;4995028;28;20033;-51
2023/04/07 00:23:52;;;;;;;4.28;3.33;;;11.20;43.80;;;6.49;63.84;95496.47;4993932;28;20396;-52
2023/04/07 00:26:18;;;;;;;5.82;3.33;;;11.10;43.80;;;6.44;64.55;95496.38;4994047;28;20032;-49
2023/04/07 00:28:44;;;;;;;4.63;3.40;;;11.10;43.90;;;6.46;64.44;95496.16;4994646;28;20385;-50
2023/04/07 00:31:10;;;;;;;5.05;3.35;;;11.10;43.90;;;6.44;64.58;95480.50;4993722;28;20037;-48
2023/04/07 00:33:36;;;;;;;5.22;3.47;;;11.10;44.00;;;6.46;64.08;95482.91;4994598;28;20022;-48
2023/04/07 00:36:02;;;;;;;5.05;3.50;;;11.10;44.00;;;6.46;63.20;95474.97;4994714;28;20032;-49
2023/04/07 00:38:29;;;;;;;4.63;3.50;;;11.10;44.00;;;6.47;64.11;95474.72;4993773;28;20045;-51
2023/04/07 00:41:00;;;;;;;5.22;3.50;;;11.10;44.10;;;6.49;65.37;95467.34;4994489;28;20420;-48
2023/04/07 00:43:26;;;;;;;6.65;3.42;;;11.10;44.30;;;6.52;65.12;95459.97;4993393;28;20032;-51
2023/04/07 00:45:53;;;;;;;5.13;3.35;;;11.00;44.20;;;6.46;65.04;95451.97;4994443;28;20024;-52
2023/04/07 00:48:20;;;;;;;8.48;3.50;;;11.10;44.40;;;6.48;65.56;95454.34;4994421;28;20076;-50
2023/04/07 00:50:46;;;;;;;6.93;3.70;;;11.10;44.50;;;6.43;65.25;95443.72;4992287;28;20032;-49
2023/04/07 00:53:13;;;;;;;4.88;3.13;;;11.10;44.40;;;6.38;65.22;95441.78;4994451;28;20021;-49
2023/04/07 00:55:38;;;;;;;4.97;3.40;;;11.10;44.40;;;6.35;65.96;95444.91;4993336;28;20452;-48
2023/04/07 00:58:04;;;;;;;5.60;3.20;;;11.00;44.40;;;6.38;66.46;95440.97;4993995;28;20101;-52
2023/04/07 01:00:41;;;;;;;5.45;3.30;;;11.00;44.60;;;6.35;65.59;95438.81;4994226;28;20057;-48
2023/04/07 01:03:30;;;;;;;4.32;3.10;;;11.00;44.60;;;6.32;64.46;95439.28;4992069;28;20021;-50
2023/04/07 01:06:04;;;;;;;5.70;3.13;;;11.00;44.60;;;6.31;64.67;95432.41;4994335;28;20033;-51
2023/04/07 01:09:02;;;;;;;4.57;2.95;;;11.00;44.60;;;6.31;64.01;95427.91;4991689;28;20028;-55
2023/04/07 01:12:17;;;;;;;4.30;3.22;;;11.00;44.60;;;6.30;64.56;95428.13;4992881;28;20052;-49
2023/04/07 01:14:54;;;;;;;5.80;3.20;;;11.00;44.60;;;6.31;62.98;95419.19;4992565;28;20097;-49
2023/04/07 01:17:27;;;;;;;4.53;3.13;;;11.00;44.50;;;6.31;64.29;95417.31;4992954;28;20416;-49
2023/04/07 01:20:04;;;;;;;5.07;3.35;;;11.00;44.50;;;6.26;64.85;95423.31;4993279;28;20109;-50
2023/04/07 01:22:47;;;;;;;4.13;3.05;;;11.00;44.60;;;6.26;64.18;95422.53;4992807;28;20443;-51
2023/04/07 01:26:32;;;;;;;4.88;2.85;;;11.00;44.60;;;6.25;65.17;95416.44;4990016;28;20048;-52
2023/04/07 01:29:36;;;;;;;6.60;3.17;;;11.00;44.60;;;6.24;64.52;95419.34;4971959;28;20042;-50
2023/04/07 01:32:08;;;;;;;3.75;2.92;;;10.90;44.60;;;6.22;64.85;95409.00;4971035;28;20068;-48
2023/04/07 01:34:39;;;;;;;5.18;3.03;;;10.90;44.60;;;6.22;66.30;95409.00;4999876;28;20120;-48
2023/04/07 01:37:07;;;;;;;4.72;3.25;;;10.90;44.70;;;6.20;65.15;95408.41;4991244;28;20033;-49
2023/04/07 01:39:37;;;;;;;5.47;2.97;;;10.90;44.70;;;6.07;65.70;95413.22;4991985;28;20018;-51
2023/04/07 01:42:07;;;;;;;4.88;3.20;;;10.90;44.70;;;6.09;65.93;95413.81;4992161;28;20068;-49
2023/04/07 01:44:34;;;;;;;4.82;3.10;;;10.90;44.80;;;6.08;64.60;95414.81;4991237;28;20556;-52
2023/04/07 01:47:02;;;;;;;3.90;3.00;;;10.90;44.80;;;6.00;65.56;95408.09;4991937;28;20028;-51
2023/04/07 01:49:31;;;;;;;4.40;3.00;;;10.80;44.80;;;6.01;62.39;95407.06;4991239;28;20030;-50
2023/04/07 01:51:58;;;;;;;4.57;2.88;;;10.80;44.80;;;6.09;60.00;95401.38;4992105;28;20024;-48
2023/04/07 01:54:26;;;;;;;5.28;3.25;;;10.80;44.60;;;6.16;61.71;95406.50;4991972;28;20415;-50
2023/04/07 01:56:51;;;;;;;5.72;2.70;;;10.80;44.50;;;6.19;60.87;95403.38;4990894;28;20366;-52
2023/04/07 01:59:17;;;;;;;6.47;2.85;;;10.80;44.50;;;6.20;61.37;95400.47;4993150;28;20080;-54
2023/04/07 02:01:43;;;;;;;4.07;2.97;;;10.80;44.50;;;6.22;60.80;95393.13;4992125;28;20022;-52
2023/04/07 02:04:53;;;;;;;4.95;3.47;;;10.80;45.10;;;6.19;62.44;95396.25;4992891;28;20075;-50
2023/04/07 02:07:50;;;;;;;4.05;2.92;;;10.80;44.50;;;6.19;62.24;95392.81;4992171;28;20481;-51
2023/04/07 02:10:22;;;;;;;5.45;3.33;;;10.80;44.50;;;6.17;62.14;95389.59;4993283;28;20037;-48
2023/04/07 02:12:49;;;;;;;4.28;3.15;;;10.80;44.50;;;6.16;62.40;95380.84;4991543;28;20021;-48
2023/04/07 02:15:18;;;;;;;3.38;2.90;;;10.80;44.40;;;6.16;61.52;95388.00;4991983;28;20033;-48
2023/04/07 02:17:52;;;;;;;4.03;2.75;;;10.80;44.40;;;6.15;61.11;95384.56;4992791;28;20026;-51
2023/04/07 02:20:20;;;;;;;4.25;2.95;;;10.80;44.40;;;6.14;60.16;95377.66;4990701;28;20036;-48
2023/04/07 02:22:47;;;;;;;4.85;2.83;;;10.80;44.90;;;6.15;60.43;95375.81;4984934;28;20496;-49
2023/04/07 02:25:31;;;;;;;4.72;2.80;;;10.80;44.30;;;6.18;61.36;95373.50;4974483;28;20029;-52
2023/04/07 02:28:00;;;;;;;4.75;2.72;;;10.80;44.30;;;6.18;60.90;95367.41;4992508;28;20021;-53
2023/04/07 02:30:27;;;;;;;3.35;2.42;;;10.90;44.30;;;6.19;61.67;95361.84;4992850;28;20021;-52
2023/04/07 02:32:53;;;;;;;4.63;2.88;;;10.90;44.30;;;6.20;61.27;95365.31;4991501;28;20018;-51
2023/04/07 02:35:19;;;;;;;4.75;2.60;;;10.90;44.20;;;6.22;61.40;95360.59;4992544;28;20026;-50
2023/04/07 02:37:46;;;;;;;6.78;2.78;;;10.90;44.30;;;6.22;57.74;95361.38;4991477;28;20030;-53
2023/04/07 02:40:12;;;;;;;4.32;2.63;;;10.90;44.10;;;6.24;60.15;95359.31;4992019;28;20415;-54
2023/04/07 02:42:39;;;;;;;3.92;2.90;;;10.90;44.00;;;6.26;59.98;95359.03;4992405;28;20499;-52
2023/04/07 02:45:08;;;;;;;4.50;2.80;;;10.90;44.00;;;6.25;61.03;95350.31;4991062;28;20449;-53
2023/04/07 02:47:36;;;;;;;3.88;3.05;;;10.90;44.10;;;6.24;61.10;95354.00;4992161;28;20043;-53
2023/04/07 02:50:03;;;;;;;4.60;2.63;;;10.90;44.10;;;6.13;59.79;95349.59;4991226;28;20467;-56
2023/04/07 02:52:29;;;;;;;3.97;2.72;;;10.90;44.00;;;6.15;61.74;95350.16;4992264;28;20017;-53
2023/04/07 02:54:54;;;;;;;3.53;2.60;;;10.90;44.00;;;6.13;60.75;95341.66;4990436;28;20064;-54
2023/04/07 02:57:20;;;;;;;3.08;2.45;;;10.90;44.10;;;6.08;60.56;95330.22;4992279;28;20021;-50
2023/04/07 02:59:46;;;;;;;3.78;2.80;;;10.80;44.00;;;6.08;61.64;95335.50;4992140;28;20099;-48
2023/04/07 03:02:12;;;;;;;5.35;2.53;;;10.80;44.00;;;6.01;59.82;95325.88;4991415;28;20014;-48
2023/04/07 03:04:38;;;;;;;4.13;2.92;;;10.80;44.00;;;6.00;60.21;95326.94;4992073;28;20410;-49
2023/04/07 03:07:04;;;;;;;4.93;2.70;;;10.70;44.00;;;5.96;61.31;95319.75;4991087;28;20021;-49
2023/04/07 03:09:30;;;;;;;5.38;3.00;;;10.70;44.10;;;5.89;61.33;95321.69;4991795;28;20036;-50
2023/04/07 03:11:57;;;;;;;4.45;2.67;;;10.60;44.10;;;5.78;61.37;95312.81;4992033;28;20075;-48
2023/04/07 03:14:23;;;;;;;5.03;3.10;;;10.50;44.70;;;5.73;61.64;95310.88;4990988;28;20037;-50
2023/04/07 03:16:48;;;;;;;3.67;2.47;;;10.40;44.10;;;5.61;62.93;95312.00;4991929;28;20018;-49
2023/04/07 03:19:15;;;;;;;3.40;2.65;;;10.40;44.20;;;5.52;63.38;95306.34;4990942;28;20080;-51
2023/04/07 03:21:41;;;;;;;4.72;3.20;;;10.30;44.30;;;5.42;63.26;95309.59;4991777;28;20072;-50
2023/04/07 03:24:07;;;;;;;4.28;3.10;;;10.20;44.40;;;5.32;63.62;95312.06;4991771;28;20030;-49
2023/04/07 03:26:34;;;;;;;3.80;2.63;;;10.20;44.60;;;5.22;63.29;95301.31;4990748;28;20373;-50
2023/04/07 03:29:00;;;;;;;4.53;2.90;;;10.10;44.60;;;5.08;65.04;95306.09;4991918;28;20112;-48
2023/04/07 03:31:26;;;;;;;4.15;3.10;;;10.00;44.70;;;5.07;65.64;95304.47;4990816;28;20124;-48
2023/04/07 03:33:51;;;;;;;4.85;2.90;;;9.90;44.80;;;5.05;64.88;95302.09;4991734;28;20022;-49
2023/04/07 03:36:18;;;;;;;3.67;2.78;;;9.90;44.90;;;4.95;66.92;95301.09;4991569;28;20044;-49
2023/04/07 03:38:46;;;;;;;4.78;3.10;;;9.80;45.10;;;4.91;67.47;95300.75;4994385;28;20057;-49
2023/04/07 03:41:12;;;;;;;3.78;2.80;;;9.80;45.20;;;4.88;68.08;95290.66;4994498;28;20041;-49
2023/04/07 03:43:38;;;;;;;4.03;2.78;;;9.70;45.30;;;4.81;68.85;95305.84;4994706;28;20024;-51
2023/04/07 03:46:04;;;;;;;4.10;2.83;;;9.70;45.50;;;4.80;68.02;95298.97;4995788;28;20025;-50
2023/04/07 03:48:30;;;;;;;3.08;2.70;;;9.70;45.60;;;4.81;67.39;95297.94;4995416;28;20108;-51
2023/04/07 03:50:56;;;;;;;4.40;2.88;;;9.70;45.70;;;4.80;67.79;95301.63;4994426;28;20090;-54
2023/04/07 03:53:22;;;;;;;5.78;2.95;;;9.60;45.80;;;4.78;69.24;95299.19;4995435;28;20457;-50
2023/04/07 03:55:48;;;;;;;6.22;3.25;;;9.60;46.00;;;4.75;70.72;95298.88;4994129;28;20539;-53
2023/04/07 03:58:14;;;;;;;3.97;2.92;;;9.60;46.10;;;4.73;71.10;95298.28;4995337;28;20022;-49
2023/04/07 04:00:40;;;;;;;3.88;2.67;;;9.60;46.20;;;4.66;71.52;95297.63;4989716;28;21670;-53
2023/04/07 04:03:06;;;;;;;3.35;2.70;;;9.60;46.30;;;4.61;72.97;95296.50;4989124;28;20025;-50
2023/04/07 04:05:32;;;;;;;7.38;3.47;;;9.60;46.50;;;4.66;71.90;95290.50;4989874;28;20025;-52
2023/04/07 04:07:58;;;;;;;3.60;2.70;;;9.60;46.60;;;4.64;73.54;95295.25;4983356;28;20477;-49
2023/04/07 04:10:24;;;;;;;5.13;2.40;;;9.60;46.70;;;4.62;73.64;95295.47;4985148;28;20029;-50
2023/04/07 04:12:50;;;;;;;7.28;3.03;;;9.50;46.80;;;4.67;72.98;95291.31;4975197;28;20026;-51
2023/04/07 04:15:16;;;;;;;4.10;2.55;;;9.50;47.00;;;4.62;71.43;95295.47;4993951;28;20030;-49
2023/04/07 04:17:42;;;;;;;3.67;2.72;;;9.50;47.10;;;4.66;73.07;95295.78;4994838;28;20026;-48
2023/04/07 04:20:09;;;;;;;5.13;2.95;;;9.50;47.20;;;4.60;74.10;95294.88;4993709;28;20064;-48
2023/04/07 04:22:35;;;;;;;5.25;2.53;;;9.50;47.40;;;4.69;73.83;95294.53;4994769;28;20029;-49
2023/04/07 04:25:01;;;;;;;6.05;2.78;;;9.50;47.40;;;4.63;74.89;95289.13;4994010;28;20041;-51
2023/04/07 04:27:27;;;;;;;5.45;2.70;;;9.50;47.60;;;4.67;74.86;95289.50;4992931;28;20052;-51
2023/04/07 04:29:53;;;;;;;5.32;2.90;;;9.50;47.70;;;4.72;74.04;95286.94;4994594;28;20024;-48
2023/04/07 04:32:20;;;;;;;4.50;2.80;;;9.50;47.80;;;4.71;74.34;95282.72;4993778;28;20029;-52
2023/04/07 04:34:46;;;;;;;4.03;3.25;;;9.50;48.40;;;4.73;75.88;95269.25;4994334;28;20440;-49
2023/04/07 04:37:12;;;;;;;3.92;2.88;;;9.50;47.90;;;4.72;75.35;95270.31;4993465;28;20107;-49
2023/04/07 04:39:38;;;;;;;3.65;2.80;;;9.50;48.00;;;4.68;75.42;95277.91;4994371;28;20086;-50
2023/04/07 04:42:05;;;;;;;6.85;3.22;;;9.40;48.10;;;4.58;75.19;95281.16;4994624;28;20030;-49
2023/04/07 04:44:31;;;;;;;3.88;3.05;;;9.40;48.20;;;4.62;74.76;95278.84;4991225;28;20079;-49
2023/04/07 04:46:57;;;;;;;5.70;3.60;;;9.40;48.80;;;4.65;75.57;95273.09;4994075;28;20053;-50
2023/04/07 04:49:22;;;;;;;4.05;3.08;;;9.40;48.40;;;4.61;75.92;95271.97;4992008;28;20049;-49
2023/04/07 04:51:48;;;;;;;4.28;3.38;;;9.40;48.50;;;4.58;76.57;95267.16;4994106;28;20125;-49
2023/04/07 04:54:15;;;;;;;4.40;3.42;;;9.30;48.60;;;4.54;76.27;95261.53;4994190;28;20499;-49
2023/04/07 04:56:41;;;;;;;4.45;3.13;;;9.20;48.70;;;4.47;76.00;95263.50;4993141;28;20473;-50
2023/04/07 04:59:07;;;;;;;4.68;3.05;;;9.20;48.70;;;4.39;76.13;95259.41;4994282;28;20018;-51
2023/04/07 05:01:33;;;;;;;4.38;3.00;;;9.20;48.80;;;4.33;75.97;95255.06;4992765;28;20499;-49
2023/04/07 05:03:59;;;;;;;5.93;3.65;;;9.10;48.80;;;4.32;75.76;95247.38;4993806;28;20025;-49
2023/04/07 05:06:26;;;;;;;5.07;3.45;;;9.10;48.90;;;4.29;76.74;95248.63;4994156;28;20026;-49
2023/04/07 05:08:52;;;;;;;6.20;3.50;;;9.10;49.00;;;4.28;76.37;95248.88;4992807;28;20564;-51
2023/04/07 05:11:18;;;;;;;4.22;3.20;;;9.10;49.20;;;4.28;75.87;95249.66;4994059;28;20029;-48
2023/04/07 05:13:44;;;;;;;4.38;3.65;;;9.00;49.20;;;4.27;75.97;95253.34;4992854;28;20096;-49
2023/04/07 05:16:10;;;;;;;5.22;3.13;;;9.00;49.20;;;4.22;76.49;95249.81;4993785;28;20540;-51
2023/04/07 05:18:36;;;;;;;6.40;3.80;;;9.00;49.20;;;4.21;76.64;95251.66;4993415;28;20071;-50
2023/04/07 05:21:02;;;;;;;4.72;3.40;;;9.00;49.30;;;4.20;76.18;95250.06;4992689;28;20045;-51
2023/04/07 05:23:27;;;;;;;4.85;3.58;;;9.00;49.30;;;4.17;76.04;95253.94;4985366;28;20113;-51
2023/04/07 05:25:53;;;;;;;5.22;3.65;;;9.00;49.40;;;4.17;75.37;95255.78;4987521;28;20473;-50
2023/04/07 05:28:19;;;;;;;4.65;3.33;;;9.00;49.30;;;4.17;75.94;95253.16;4976471;28;20018;-50
2023/04/07 05:30:46;;;;;;;4.93;3.60;;;9.00;49.30;;;4.17;76.18;95246.03;4972644;28;20037;-50
2023/04/07 05:33:12;;;;;;;4.25;3.00;;;9.00;49.40;;;4.21;76.46;95246.38;4989253;28;20033;-48
2023/04/07 05:35:38;;;;;;;4.43;3.10;;;9.00;49.40;;;4.20;74.85;95252.69;4993274;28;20026;-49
2023/04/07 05:38:04;;;;;;;5.85;3.20;;;9.10;49.50;;;4.25;74.86;95244.06;4990775;28;20045;-48
2023/04/07 05:40:30;;;;;;;4.93;3.05;;;9.10;49.40;;;4.25;75.81;95250.13;4986166;28;20460;-48
2023/04/07 05:42:56;;;;;;;3.92;3.28;;;9.20;49.40;;;4.25;76.03;95244.88;4973363;28;20054;-51
2023/04/07 05:45:22;;;;;;;5.22;3.38;;;9.20;49.40;;;4.28;75.85;95247.03;4993212;28;20026;-47
2023/04/07 05:47:49;;;;;;;6.35;3.45;;;9.30;49.40;;;4.32;75.48;95240.25;4990954;28;20072;-48
2023/04/07 05:50:16;;;;;;;4.97;3.47;;;9.30;49.40;;;4.39;76.35;95240.94;4992466;28;20108;-48
2023/04/07 05:52:42;;;;;;;6.68;3.60;;;9.30;49.50;;;4.47;75.64;95238.97;4992903;28;20020;-48
2023/04/07 05:55:08;;;;;;;6.63;3.30;;;9.40;49.50;;;4.52;75.84;95237.22;4992195;28;20029;-48
2023/04/07 05:57:35;;;;;;;5.47;3.00;;;9.50;49.50;;;4.57;75.75;95232.03;4992880;28;20022;-48
2023/04/07 06:00:01;;;;;;;4.68;2.97;;;9.50;49.50;;;4.62;74.71;95228.72;4992736;28;20071;-48
2023/04/07 06:02:26;;;;;;;7.15;3.35;;;9.60;49.60;;;4.67;72.72;95226.19;4991558;28;20484;-51
2023/04/07 06:04:52;;;;;;;4.90;3.08;;;9.70;49.40;;;4.78;69.25;95225.31;4982874;28;20022;-51
2023/04/07 06:07:18;;;;;;;3.80;2.90;;;9.80;49.20;;;4.93;68.41;95216.06;4975875;28;20400;-51
2023/04/07 06:09:44;;;;;;;4.80;3.15;;;9.80;49.00;;;5.07;67.57;95220.00;4986193;28;20470;-48
2023/04/07 06:12:11;;;;;;;4.03;2.80;;;9.90;48.90;;;5.20;67.21;95219.72;4973381;28;20029;-47
2023/04/07 06:14:38;;;;;;;3.70;3.05;;;10.10;48.80;;;5.31;66.16;95224.09;4985798;28;20448;-48
2023/04/07 06:17:04;;;;;;;5.40;3.05;;;10.20;48.60;;;5.44;65.81;95233.53;4992569;28;20088;-49
2023/04/07 06:19:32;;;;;;;4.03;2.92;;;10.30;48.40;;;5.55;66.41;95232.66;4991701;28;20022;-49
2023/04/07 06:21:58;;;;;;;3.70;3.08;;;10.40;48.20;;;5.60;66.10;95225.84;4992856;28;20025;-48
2023/04/07 06:24:24;;;;;;;4.05;3.30;;;10.50;48.10;;;5.65;68.59;95233.88;4992666;28;20028;-49
2023/04/07 06:26:51;;;;;;;6.40;3.03;;;10.60;48.00;;;5.73;68.73;95236.09;4991508;28;20022;-47
2023/04/07 06:29:17;;;;;;;6.05;3.58;;;10.70;48.00;;;5.78;67.98;95231.69;4992053;28;20029;-49
2023/04/07 06:31:43;;;;;;;3.55;2.95;;;10.80;47.90;;;5.85;68.87;95233.34;4991567;28;20033;-49
2023/04/07 06:34:09;;;;;;;5.30;3.28;;;11.00;47.90;;;5.92;68.67;95233.97;4871459;28;20093;-47
2023/04/07 06:36:35;;;;;;;3.40;2.75;;;11.10;47.80;;;5.99;69.00;95239.94;4972951;28;20034;-48
2023/04/07 06:39:01;;;;;;;4.72;3.35;;;11.20;47.70;;;6.07;69.95;95233.41;4971988;28;20026;-48
2023/04/07 06:41:27;;;;;;;5.65;3.10;;;11.30;47.70;;;6.15;69.67;95233.00;4972818;28;20049;-50
2023/04/07 06:43:53;;;;;;;4.15;3.05;;;11.40;47.70;;;6.20;68.06;95227.75;4971736;28;20385;-50
2023/04/07 06:46:19;;;;;;;3.70;2.97;;;11.50;47.50;;;6.29;66.98;95222.84;4972792;28;20034;-50
2023/04/07 06:48:45;;;;;;;3.92;3.10;;;11.70;47.40;;;6.37;64.89;95227.72;4972610;28;20028;-48
2023/04/07 06:51:11;;;;;;;4.45;2.78;;;11.80;47.20;;;6.45;62.28;95224.63;4971819;28;20037;-51
2023/04/07 06:53:37;;;;;;;4.68;2.90;;;11.90;46.80;;;6.64;61.33;95225.94;4972665;28;20022;-50
2023/04/07 06:56:10;;;;;;;4.43;3.03;;;12.00;46.60;;;6.85;62.19;95231.44;4962389;28;20050;-49
2023/04/07 06:58:37;;;;;;;;;;;12.20;46.40;;;7.01;60.89;95227.09;4955852;28;20026;-52
2023/04/07 07:01:04;;;;;;;3.78;2.63;;;12.30;46.30;;;7.16;61.23;95225.38;4952357;28;19913;-49
2023/04/07 07:03:31;;;;;;;4.72;3.22;;;12.50;46.10;;;7.33;61.83;95232.41;4972589;28;20428;-48
2023/04/07 07:05:59;;;;;;;4.07;3.05;;;12.70;45.90;;;7.43;59.91;95235.16;4987646;28;20363;-50
2023/04/07 07:08:28;;;;;;;4.25;2.70;;;12.80;45.70;;;7.56;58.63;95231.28;4971424;28;20026;-49
2023/04/07 07:10:55;;;;;;;5.70;3.05;;;12.90;45.40;;;7.64;57.23;95233.44;4972154;28;20536;-48
2023/04/07 07:13:25;;;;;;;3.38;2.90;;;13.10;45.10;;;7.77;60.57;95243.63;4971286;28;20092;-51
2023/04/07 07:15:52;;;;;;;8.20;3.50;;;13.20;45.00;;;7.83;60.28;95239.97;4972385;28;20030;-53
2023/04/07 07:18:18;;;;;;;5.90;3.42;;;13.20;44.90;;;7.89;59.91;95246.88;4972411;28;20504;-48
2023/04/07 07:20:45;;;;;;;4.22;3.03;;;13.30;44.80;;;8.00;60.02;95245.09;4971244;28;20057;-49
2023/04/07 07:23:11;;;;;;;4.20;2.80;;;13.50;45.40;;;8.06;59.11;95251.25;4970937;28;20416;-48
2023/04/07 07:25:38;;;;;;;6.20;3.30;;;13.50;44.60;;;7.85;61.37;95251.09;4971014;28;20045;-50
2023/04/07 07:28:04;;;;;;;6.75;3.53;;;13.60;44.50;;;7.82;61.85;95246.31;4972119;28;20029;-48
2023/04/07 07:30:30;;;;;;;3.88;3.17;;;13.60;44.40;;;7.94;61.96;95245.31;4987486;28;20080;-48
2023/04/07 07:32:56;;;;;;;9.75;3.28;;;13.70;44.40;;;8.06;62.10;95248.59;4971531;28;20049;-53
2023/04/07 07:35:24;;;;;;;4.85;3.22;;;13.70;44.40;;;8.14;61.99;95244.63;4972086;28;20053;-52
2023/04/07 07:37:50;;;;;;;6.70;3.25;;;13.70;44.40;;;8.26;62.15;95248.69;4971392;28;20018;-49
2023/04/07 07:40:17;;;;;;;4.78;3.25;;;13.70;44.40;;;8.30;62.89;95244.47;4971909;28;20038;-51
2023/04/07 07:42:45;;;;;;;6.10;3.25;;;13.80;44.50;;;8.22;59.57;95239.66;4972517;28;20503;-54
2023/04/07 07:45:12;;;;;;;5.18;2.67;;;13.80;44.30;;;8.30;60.07;95241.81;4971226;28;20026;-51
2023/04/07 07:47:39;;;;;;;4.32;3.25;;;13.90;44.20;;;8.44;61.01;95249.34;4987041;28;20137;-49
2023/04/07 07:50:06;;;;;;;4.25;3.20;;;13.90;44.20;;;8.49;61.24;95252.00;4971289;28;20061;-49
2023/04/07 07:52:32;;;;;;;5.72;4.00;;;13.90;44.20;;;8.37;60.74;95252.22;4971821;28;20022;-49
2023/04/07 07:54:58;;;;;;;3.60;2.90;;;13.90;44.10;;;8.21;62.11;95250.50;4971786;28;20386;-53
2023/04/07 07:57:24;;;;;;;5.75;3.60;;;13.90;44.10;;;8.09;61.75;95254.19;4970553;28;20109;-51
2023/04/07 07:59:50;;;;;;;3.65;2.95;;;13.90;44.10;;;8.12;61.83;95252.88;4972135;28;20030;-51
2023/04/07 08:02:15;;;;;;;6.18;3.35;;;13.90;44.10;;;8.20;63.44;95255.03;4971442;28;20489;-51
2023/04/07 08:04:42;;;;;;;5.30;4.13;;;13.80;44.20;;;8.03;63.84;95259.72;4971957;28;20258;-52
2023/04/07 08:07:07;;;;;;;5.05;3.47;;;13.80;44.30;;;8.07;63.75;95258.13;4971059;28;20109;-52
2023/04/07 08:09:33;;;;;;;3.90;2.95;;;13.70;44.30;;;8.19;64.17;95265.91;4966433;28;20105;-48
2023/04/07 08:12:00;;;;;;;7.10;3.42;;;13.70;44.40;;;8.30;63.66;95262.22;4952617;28;20039;-48
2023/04/07 08:14:25;;;;;;;4.75;3.42;;;13.70;44.50;;;8.43;63.18;95271.63;4962896;28;20022;-50
2023/04/07 08:16:51;;;;;;;4.82;3.70;;;13.80;44.50;;;8.49;62.86;95270.59;4972025;28;20400;-48
2023/04/07 08:19:17;;;;;;;4.55;3.22;;;13.90;44.60;;;8.60;61.80;95272.25;4971242;28;20084;-50
2023/04/07 08:21:43;;;;;;;3.97;3.33;;;14.00;45.10;;;8.64;62.03;95278.63;4971993;28;20030;-49
2023/04/07 08:24:09;;;;;;;3.65;3.20;;;14.10;44.40;;;8.75;61.18;95274.16;4975505;28;20477;-52
2023/04/07 08:26:35;;;;;;;5.43;3.03;;;14.20;44.90;;;8.80;59.29;95272.31;4974105;28;20541;-52
2023/04/07 08:29:01;;;;;;;3.85;3.05;;;14.40;44.10;;;8.91;58.53;95278.47;4975290;28;20026;-52
2023/04/07 08:31:27;;;;;;;5.22;3.33;;;14.50;43.90;;;9.00;58.32;95276.91;4974384;28;20022;-49
2023/04/07 08:33:56;;;;;;;5.10;3.55;;;14.60;43.60;;;9.20;58.37;95280.66;4975167;28;20018;-54
2023/04/07 08:36:25;;;;;;;3.90;3.17;;;14.80;43.40;;;9.37;57.80;95289.22;4974189;28;20548;-55
2023/04/07 08:38:51;;;;;;;5.38;4.05;;;15.00;43.20;;;9.33;55.30;95290.78;4974552;28;20432;-53
2023/04/07 08:41:32;;;;;;;4.50;3.45;;;15.20;43.00;;;9.20;54.22;95291.28;4974965;28;20046;-53
2023/04/07 08:44:01;;;;;;;5.63;3.15;;;15.30;42.20;;;9.37;55.68;95291.03;4973087;28;20024;-50
2023/04/07 08:46:29;;;;;;;3.65;3.08;;;15.40;42.00;;;9.53;54.46;95299.84;4975003;28;20077;-53
2023/04/07 08:48:57;;;;;;;4.68;3.13;;;15.50;41.80;;;9.57;53.62;95303.59;4974470;28;20018;-51
2023/04/07 08:51:32;;;;;;;5.60;4.30;;;15.60;41.50;;;9.53;55.44;95315.78;4974092;28;20105;-52
2023/04/07 08:54:15;;;;;;;5.72;4.15;;;15.70;41.40;;;9.66;55.37;95312.63;4974805;28;20030;-54
2023/04/07 08:56:43;;;;;;;5.13;3.95;;;15.70;41.40;;;9.70;55.39;95313.69;4973613;28;20030;-48
2023/04/07 08:59:17;;;;;;;6.70;3.60;;;15.80;41.20;;;9.59;55.35;95318.22;4974545;28;20108;-50
2023/04/07 09:01:45;;;;;;;5.20;3.72;;;15.80;41.00;;;9.71;55.27;95309.97;4973592;28;20026;-50
2023/04/07 09:04:12;;;;;;;6.32;4.07;;;15.90;41.00;;;9.73;55.14;95319.28;4974740;28;20033;-48
2023/04/07 09:06:37;;;;;;;5.05;3.53;;;15.90;40.90;;;9.83;54.59;95323.81;4974635;28;20022;-48
2023/04/07 09:09:05;;;;;;;5.28;3.55;;;16.00;40.80;;;9.93;54.50;95317.69;4971964;28;20072;-48
2023/04/07 09:11:37;;;;;;;4.40;3.60;;;16.10;40.70;;;9.95;54.91;95319.03;4974549;28;20030;-50
2023/04/07 09:14:03;;;;;;;5.20;3.70;;;16.20;40.60;;;9.91;55.61;95325.16;4964935;28;20026;-52
2023/04/07 09:16:32;;;;;;;4.97;3.40;;;16.30;40.60;;;9.95;55.76;95318.22;4955293;28;20058;-52
2023/04/07 09:18:59;;;;;;;3.60;3.30;;;16.40;40.50;;;10.05;56.08;95325.41;4954654;28;20437;-55
2023/04/07 09:21:26;;;;;;;5.07;3.10;;;16.50;40.40;;;9.90;56.61;95326.19;4974212;28;20026;-55
2023/04/07 09:23:52;;;;;;;4.90;3.50;;;16.50;40.30;;;9.70;57.92;95322.47;4974381;28;20025;-55
2023/04/07 09:26:24;;;;;;;4.50;3.47;;;16.50;40.20;;;9.87;58.00;95335.53;4973237;28;20158;-50
2023/04/07 09:29:06;;;;;;;3.75;3.22;;;16.50;40.30;;;9.82;59.20;95332.84;4955054;28;20018;-51
2023/04/07 09:31:50;;;;;;;3.85;3.30;;;16.60;40.30;;;9.53;60.65;95332.56;4958689;28;20034;-51
2023/04/07 09:34:31;;;;;;;4.07;3.15;;;16.70;40.30;;;9.76;60.37;95333.13;4973690;28;20022;-48
2023/04/07 09:36:58;;;;;;;3.45;2.70;;;16.80;40.30;;;9.76;61.02;95341.09;4973565;28;20105;-49
2023/04/07 09:39:25;;;;;;;3.47;2.80;;;16.90;40.30;;;9.64;61.39;95341.34;4973820;28;20109;-48
2023/04/07 09:41:52;;;;;;;4.15;3.00;;;16.90;40.30;;;9.48;61.57;95338.66;4974011;28;20400;-49
2023/04/07 09:44:23;;;;;;;3.78;3.13;;;17.00;40.20;;;9.54;61.63;95344.00;4973209;28;20471;-50
2023/04/07 09:46:57;;;;;;;4.32;2.50;;;17.00;40.20;;;9.68;62.33;95342.41;4973861;28;20053;-52
2023/04/07 09:49:26;;;;;;;3.28;2.83;;;17.00;40.30;;;9.92;61.43;95348.03;4972628;28;20026;-48
2023/04/07 09:52:06;;;;;;;2.70;2.35;;;17.00;40.40;;;9.90;61.65;95345.66;4973722;28;20030;-49
2023/04/07 09:54:41;;;;;;;3.83;3.20;;;17.00;40.50;;;10.02;60.80;95344.56;4973745;28;20469;-51
2023/04/07 09:57:10;;;;;;;3.92;2.80;;;17.10;40.60;;;9.92;61.49;95356.81;4972560;28;20030;-51
2023/04/07 09:59:43;;;;;;;5.43;2.90;;;17.10;40.50;;;9.89;61.36;95356.53;4973583;28;20038;-52
2023/04/07 10:02:11;;;;;;;3.53;2.70;;;17.10;40.40;;;9.86;61.19;95355.19;4972588;28;20033;-49
2023/04/07 10:04:39;;;;;;;2.80;2.50;;;17.10;40.40;;;9.79;61.54;95356.53;4973654;28;20569;-53
2023/04/07 10:07:06;;;;;;;2.90;2.60;;;17.20;40.40;;;9.68;62.00;95353.88;4973037;28;20392;-54
2023/04/07 10:09:32;;;;;;;2.88;2.50;;;17.10;40.30;;;9.78;61.30;95354.91;4968209;28;20030;-50
2023/04/07 10:11:59;;;;;;;3.00;2.70;;;17.00;40.40;;;9.63;61.92;95353.06;4954090;28;20401;-48
2023/04/07 10:14:30;;;;;;;4.18;3.10;;;16.90;40.50;;;9.41;62.21;95359.38;4964088;28;20466;-51
2023/04/07 10:16:59;;;;;;;3.28;2.80;;;16.80;40.50;;;9.40;62.59;95355.16;4973515;28;20034;-50
2023/04/07 10:19:32;;;;;;;3.00;2.35;;;16.70;40.70;;;9.30;62.89;95352.44;4971401;28;20436;-48
2023/04/07 10:22:02;;;;;;;4.22;2.88;;;16.60;40.80;;;9.59;62.48;95358.09;4988281;28;20030;-50
2023/04/07 10:24:46;;;;;;;6.85;2.90;;;16.50;41.00;;;9.57;62.14;95362.88;4972078;28;20022;-49
2023/04/07 10:27:22;;;;;;;4.32;2.85;;;16.40;41.10;;;9.36;62.80;95367.34;4972107;28;20037;-48
2023/04/07 10:29:53;;;;;;;4.22;2.67;;;16.40;41.20;;;9.60;62.70;95364.22;4972983;28;20520;-53
2023/04/07 10:32:19;;;;;;;4.32;2.60;;;16.40;41.30;;;9.58;62.58;95371.66;4961940;28;20067;-49
2023/04/07 10:34:52;;;;;;;3.38;2.55;;;16.40;41.40;;;9.48;62.46;95362.59;4953636;28;20025;-50